sensor_id;sensor_type;location;lat;lon;timestamp;P1;durP1;ratioP1;P2;durP2;ratioP2
11187;SDS011;5650;52.700;7.306;2023-08-06T00:00:51;9.90;;;8.88;;
11187;SDS011;5650;52.700;7.306;2023-08-06T00:03:18;12.50;;;8.48;;
11187;SDS011;5650;52.700;7.306;2023-08-06T00:05:46;11.13;;;9.85;;
11187;SDS011;5650;52.700;7.306;2023-08-06T00:08:23;11.23;;;8.95;;
11187;SDS011;5650;52.700;7.306;2023-08-06T00:10:53;9.93;;;8.82;;
11187;SDS011;5650;52.700;7.306;2023-08-06T00:13:26;11.38;;;9.48;;
11187;SDS011;5650;52.700;7.306;2023-08-06T00:15:53;11.07;;;8.93;;
11187;SDS011;5650;52.700;7.306;2023-08-06T00:18:21;10.10;;;9.10;;
11187;SDS011;5650;52.700;7.306;2023-08-06T00:20:54;10.98;;;8.93;;
11187;SDS011;5650;52.700;7.306;2023-08-06T00:23:22;12.13;;;8.88;;
11187;SDS011;5650;52.700;7.306;2023-08-06T00:25:52;10.65;;;9.55;;
11187;SDS011;5650;52.700;7.306;2023-08-06T00:28:19;12.13;;;9.05;;
11187;SDS011;5650;52.700;7.306;2023-08-06T00:30:51;15.13;;;9.05;;
11187;SDS011;5650;52.700;7.306;2023-08-06T00:33:19;10.00;;;9.00;;
11187;SDS011;5650;52.700;7.306;2023-08-06T00:35:46;9.90;;;8.82;;
11187;SDS011;5650;52.700;7.306;2023-08-06T00:38:13;11.98;;;9.00;;
11187;SDS011;5650;52.700;7.306;2023-08-06T00:40:45;11.55;;;9.77;;
11187;SDS011;5650;52.700;7.306;2023-08-06T00:43:18;13.27;;;9.30;;
11187;SDS011;5650;52.700;7.306;2023-08-06T00:45:45;11.70;;;10.10;;
11187;SDS011;5650;52.700;7.306;2023-08-06T00:48:13;11.35;;;10.05;;
11187;SDS011;5650;52.700;7.306;2023-08-06T00:50:41;13.30;;;10.35;;
11187;SDS011;5650;52.700;7.306;2023-08-06T00:53:08;11.38;;;10.10;;
11187;SDS011;5650;52.700;7.306;2023-08-06T00:55:35;12.75;;;10.43;;
11187;SDS011;5650;52.700;7.306;2023-08-06T00:58:04;12.25;;;11.00;;
11187;SDS011;5650;52.700;7.306;2023-08-06T01:00:32;11.55;;;10.32;;
11187;SDS011;5650;52.700;7.306;2023-08-06T01:02:59;12.30;;;11.20;;
11187;SDS011;5650;52.700;7.306;2023-08-06T01:05:27;14.45;;;10.77;;
11187;SDS011;5650;52.700;7.306;2023-08-06T01:08:08;13.57;;;12.27;;
11187;SDS011;5650;52.700;7.306;2023-08-06T01:11:01;12.73;;;11.43;;
11187;SDS011;5650;52.700;7.306;2023-08-06T01:13:41;12.30;;;10.93;;
11187;SDS011;5650;52.700;7.306;2023-08-06T01:16:11;11.15;;;10.05;;
11187;SDS011;5650;52.700;7.306;2023-08-06T01:18:42;11.07;;;9.98;;
11187;SDS011;5650;52.700;7.306;2023-08-06T01:21:25;15.02;;;10.40;;
11187;SDS011;5650;52.700;7.306;2023-08-06T01:23:52;14.90;;;10.60;;
11187;SDS011;5650;52.700;7.306;2023-08-06T01:26:24;12.70;;;10.13;;
11187;SDS011;5650;52.700;7.306;2023-08-06T01:28:56;10.65;;;9.50;;
11187;SDS011;5650;52.700;7.306;2023-08-06T01:31:35;11.23;;;10.05;;
11187;SDS011;5650;52.700;7.306;2023-08-06T01:34:06;10.85;;;9.73;;
11187;SDS011;5650;52.700;7.306;2023-08-06T01:36:41;11.70;;;8.73;;
11187;SDS011;5650;52.700;7.306;2023-08-06T01:39:08;13.00;;;10.07;;
11187;SDS011;5650;52.700;7.306;2023-08-06T01:41:35;10.80;;;9.75;;
11187;SDS011;5650;52.700;7.306;2023-08-06T01:44:03;13.65;;;10.00;;
11187;SDS011;5650;52.700;7.306;2023-08-06T01:46:33;11.77;;;9.98;;
11187;SDS011;5650;52.700;7.306;2023-08-06T01:49:00;11.73;;;10.48;;
11187;SDS011;5650;52.700;7.306;2023-08-06T01:51:27;11.05;;;9.90;;
11187;SDS011;5650;52.700;7.306;2023-08-06T01:53:56;12.60;;;10.15;;
11187;SDS011;5650;52.700;7.306;2023-08-06T01:56:26;13.63;;;9.90;;
11187;SDS011;5650;52.700;7.306;2023-08-06T01:58:59;11.25;;;9.85;;
11187;SDS011;5650;52.700;7.306;2023-08-06T02:01:29;10.80;;;9.70;;
11187;SDS011;5650;52.700;7.306;2023-08-06T02:03:57;11.05;;;9.70;;
11187;SDS011;5650;52.700;7.306;2023-08-06T02:06:30;11.27;;;10.15;;
11187;SDS011;5650;52.700;7.306;2023-08-06T02:09:05;11.38;;;9.55;;
11187;SDS011;5650;52.700;7.306;2023-08-06T02:11:35;11.23;;;10.07;;
11187;SDS011;5650;52.700;7.306;2023-08-06T02:14:02;11.30;;;10.20;;
11187;SDS011;5650;52.700;7.306;2023-08-06T02:16:35;11.65;;;10.35;;
11187;SDS011;5650;52.700;7.306;2023-08-06T02:19:02;11.50;;;9.75;;
11187;SDS011;5650;52.700;7.306;2023-08-06T02:21:35;12.07;;;9.70;;
11187;SDS011;5650;52.700;7.306;2023-08-06T02:24:06;13.27;;;10.40;;
11187;SDS011;5650;52.700;7.306;2023-08-06T02:26:40;12.13;;;10.77;;
11187;SDS011;5650;52.700;7.306;2023-08-06T02:29:07;11.85;;;10.18;;
11187;SDS011;5650;52.700;7.306;2023-08-06T02:31:34;13.80;;;11.10;;
11187;SDS011;5650;52.700;7.306;2023-08-06T02:34:01;11.80;;;10.57;;
11187;SDS011;5650;52.700;7.306;2023-08-06T02:36:28;11.30;;;10.23;;
11187;SDS011;5650;52.700;7.306;2023-08-06T02:39:03;11.00;;;9.27;;
11187;SDS011;5650;52.700;7.306;2023-08-06T02:41:34;11.82;;;10.15;;
11187;SDS011;5650;52.700;7.306;2023-08-06T02:44:01;11.55;;;10.45;;
11187;SDS011;5650;52.700;7.306;2023-08-06T02:46:28;12.77;;;10.48;;
11187;SDS011;5650;52.700;7.306;2023-08-06T02:49:01;12.05;;;10.70;;
11187;SDS011;5650;52.700;7.306;2023-08-06T02:51:34;13.23;;;11.02;;
11187;SDS011;5650;52.700;7.306;2023-08-06T02:54:01;11.80;;;10.63;;
11187;SDS011;5650;52.700;7.306;2023-08-06T02:56:28;15.13;;;11.10;;
11187;SDS011;5650;52.700;7.306;2023-08-06T02:58:57;15.60;;;12.80;;
11187;SDS011;5650;52.700;7.306;2023-08-06T03:01:25;14.25;;;12.75;;
11187;SDS011;5650;52.700;7.306;2023-08-06T03:03:55;13.38;;;12.05;;
11187;SDS011;5650;52.700;7.306;2023-08-06T03:06:29;13.45;;;12.20;;
11187;SDS011;5650;52.700;7.306;2023-08-06T03:08:59;13.57;;;11.75;;
11187;SDS011;5650;52.700;7.306;2023-08-06T03:11:32;14.40;;;12.50;;
11187;SDS011;5650;52.700;7.306;2023-08-06T03:14:00;14.70;;;11.90;;
11187;SDS011;5650;52.700;7.306;2023-08-06T03:16:27;12.35;;;11.15;;
11187;SDS011;5650;52.700;7.306;2023-08-06T03:18:55;16.23;;;12.73;;
11187;SDS011;5650;52.700;7.306;2023-08-06T03:21:22;13.13;;;11.82;;
11187;SDS011;5650;52.700;7.306;2023-08-06T03:23:49;16.17;;;13.40;;
11187;SDS011;5650;52.700;7.306;2023-08-06T03:26:16;13.52;;;12.18;;
11187;SDS011;5650;52.700;7.306;2023-08-06T03:28:50;14.88;;;13.00;;
11187;SDS011;5650;52.700;7.306;2023-08-06T03:31:18;15.02;;;12.65;;
11187;SDS011;5650;52.700;7.306;2023-08-06T03:33:45;16.13;;;14.10;;
11187;SDS011;5650;52.700;7.306;2023-08-06T03:36:13;17.60;;;14.30;;
11187;SDS011;5650;52.700;7.306;2023-08-06T03:38:40;16.58;;;14.02;;
11187;SDS011;5650;52.700;7.306;2023-08-06T03:41:13;21.88;;;14.85;;
11187;SDS011;5650;52.700;7.306;2023-08-06T03:43:40;16.48;;;14.68;;
11187;SDS011;5650;52.700;7.306;2023-08-06T03:46:10;17.23;;;14.10;;
11187;SDS011;5650;52.700;7.306;2023-08-06T03:48:42;15.27;;;13.93;;
11187;SDS011;5650;52.700;7.306;2023-08-06T03:51:09;15.40;;;13.80;;
11187;SDS011;5650;52.700;7.306;2023-08-06T03:53:42;16.85;;;13.95;;
11187;SDS011;5650;52.700;7.306;2023-08-06T03:56:09;15.05;;;13.50;;
11187;SDS011;5650;52.700;7.306;2023-08-06T03:58:41;15.68;;;14.27;;
11187;SDS011;5650;52.700;7.306;2023-08-06T04:01:08;15.40;;;13.75;;
11187;SDS011;5650;52.700;7.306;2023-08-06T04:03:38;16.98;;;14.18;;
11187;SDS011;5650;52.700;7.306;2023-08-06T04:06:07;14.52;;;13.02;;
11187;SDS011;5650;52.700;7.306;2023-08-06T04:08:40;15.43;;;13.27;;
11187;SDS011;5650;52.700;7.306;2023-08-06T04:11:07;16.90;;;15.30;;
11187;SDS011;5650;52.700;7.306;2023-08-06T04:13:38;15.45;;;14.05;;
11187;SDS011;5650;52.700;7.306;2023-08-06T04:16:13;16.50;;;15.00;;
11187;SDS011;5650;52.700;7.306;2023-08-06T04:18:40;16.25;;;14.77;;
11187;SDS011;5650;52.700;7.306;2023-08-06T04:21:35;16.27;;;14.77;;
11187;SDS011;5650;52.700;7.306;2023-08-06T04:24:02;15.93;;;14.35;;
11187;SDS011;5650;52.700;7.306;2023-08-06T04:26:32;16.63;;;14.82;;
11187;SDS011;5650;52.700;7.306;2023-08-06T04:29:02;17.48;;;15.85;;
11187;SDS011;5650;52.700;7.306;2023-08-06T04:31:31;17.23;;;15.57;;
11187;SDS011;5650;52.700;7.306;2023-08-06T04:34:04;17.23;;;15.52;;
11187;SDS011;5650;52.700;7.306;2023-08-06T04:36:37;25.50;;;15.60;;
11187;SDS011;5650;52.700;7.306;2023-08-06T04:39:06;18.00;;;16.20;;
11187;SDS011;5650;52.700;7.306;2023-08-06T04:41:34;18.23;;;15.77;;
11187;SDS011;5650;52.700;7.306;2023-08-06T04:44:04;17.33;;;15.70;;
11187;SDS011;5650;52.700;7.306;2023-08-06T04:46:31;16.83;;;15.32;;
11187;SDS011;5650;52.700;7.306;2023-08-06T04:48:58;17.00;;;15.40;;
11187;SDS011;5650;52.700;7.306;2023-08-06T04:51:25;17.10;;;15.40;;
11187;SDS011;5650;52.700;7.306;2023-08-06T04:53:56;17.52;;;15.73;;
11187;SDS011;5650;52.700;7.306;2023-08-06T04:56:30;16.33;;;14.77;;
11187;SDS011;5650;52.700;7.306;2023-08-06T04:58:57;17.30;;;15.60;;
11187;SDS011;5650;52.700;7.306;2023-08-06T05:01:30;16.45;;;14.85;;
11187;SDS011;5650;52.700;7.306;2023-08-06T05:03:58;16.33;;;14.77;;
11187;SDS011;5650;52.700;7.306;2023-08-06T05:06:28;16.23;;;14.63;;
11187;SDS011;5650;52.700;7.306;2023-08-06T05:08:56;18.38;;;15.05;;
11187;SDS011;5650;52.700;7.306;2023-08-06T05:11:27;17.05;;;15.35;;
11187;SDS011;5650;52.700;7.306;2023-08-06T05:13:59;17.35;;;15.65;;
11187;SDS011;5650;52.700;7.306;2023-08-06T05:16:26;18.85;;;15.13;;
11187;SDS011;5650;52.700;7.306;2023-08-06T05:18:53;15.63;;;14.00;;
11187;SDS011;5650;52.700;7.306;2023-08-06T05:21:21;17.42;;;15.60;;
11187;SDS011;5650;52.700;7.306;2023-08-06T05:24:03;13.95;;;12.68;;
11187;SDS011;5650;52.700;7.306;2023-08-06T05:26:30;13.38;;;11.98;;
11187;SDS011;5650;52.700;7.306;2023-08-06T05:29:00;14.73;;;13.05;;
11187;SDS011;5650;52.700;7.306;2023-08-06T05:31:28;13.23;;;12.02;;
11187;SDS011;5650;52.700;7.306;2023-08-06T05:33:55;16.85;;;13.63;;
11187;SDS011;5650;52.700;7.306;2023-08-06T05:36:22;15.00;;;13.40;;
11187;SDS011;5650;52.700;7.306;2023-08-06T05:38:49;14.13;;;12.70;;
11187;SDS011;5650;52.700;7.306;2023-08-06T05:41:21;14.48;;;12.98;;
11187;SDS011;5650;52.700;7.306;2023-08-06T05:43:51;16.40;;;14.70;;
11187;SDS011;5650;52.700;7.306;2023-08-06T05:46:21;16.42;;;14.25;;
11187;SDS011;5650;52.700;7.306;2023-08-06T05:49:01;15.85;;;13.75;;
11187;SDS011;5650;52.700;7.306;2023-08-06T05:51:28;12.55;;;11.35;;
11187;SDS011;5650;52.700;7.306;2023-08-06T05:54:04;12.75;;;11.45;;
11187;SDS011;5650;52.700;7.306;2023-08-06T05:56:33;11.85;;;10.77;;
11187;SDS011;5650;52.700;7.306;2023-08-06T05:59:06;12.75;;;9.20;;
11187;SDS011;5650;52.700;7.306;2023-08-06T06:01:40;9.32;;;8.50;;
11187;SDS011;5650;52.700;7.306;2023-08-06T06:04:07;8.02;;;7.22;;
11187;SDS011;5650;52.700;7.306;2023-08-06T06:06:34;8.75;;;7.82;;
11187;SDS011;5650;52.700;7.306;2023-08-06T06:09:02;9.90;;;8.13;;
11187;SDS011;5650;52.700;7.306;2023-08-06T06:11:33;8.07;;;7.28;;
11187;SDS011;5650;52.700;7.306;2023-08-06T06:14:00;8.43;;;7.57;;
11187;SDS011;5650;52.700;7.306;2023-08-06T06:16:27;9.60;;;7.25;;
11187;SDS011;5650;52.700;7.306;2023-08-06T06:19:07;6.93;;;6.32;;
11187;SDS011;5650;52.700;7.306;2023-08-06T06:21:37;8.85;;;6.85;;
11187;SDS011;5650;52.700;7.306;2023-08-06T06:24:05;10.70;;;6.35;;
11187;SDS011;5650;52.700;7.306;2023-08-06T06:26:34;9.23;;;7.05;;
11187;SDS011;5650;52.700;7.306;2023-08-06T06:29:04;9.88;;;8.00;;
11187;SDS011;5650;52.700;7.306;2023-08-06T06:31:45;10.60;;;9.50;;
11187;SDS011;5650;52.700;7.306;2023-08-06T06:34:17;12.60;;;9.55;;
11187;SDS011;5650;52.700;7.306;2023-08-06T06:36:47;13.60;;;9.07;;
11187;SDS011;5650;52.700;7.306;2023-08-06T06:39:15;11.95;;;9.55;;
11187;SDS011;5650;52.700;7.306;2023-08-06T06:41:44;9.90;;;8.45;;
11187;SDS011;5650;52.700;7.306;2023-08-06T06:44:11;8.18;;;7.35;;
11187;SDS011;5650;52.700;7.306;2023-08-06T06:46:45;9.13;;;8.23;;
11187;SDS011;5650;52.700;7.306;2023-08-06T06:49:12;9.23;;;7.68;;
11187;SDS011;5650;52.700;7.306;2023-08-06T06:51:39;11.90;;;8.48;;
11187;SDS011;5650;52.700;7.306;2023-08-06T06:54:06;12.07;;;9.50;;
11187;SDS011;5650;52.700;7.306;2023-08-06T06:56:33;10.13;;;9.10;;
11187;SDS011;5650;52.700;7.306;2023-08-06T06:59:02;11.38;;;8.18;;
11187;SDS011;5650;52.700;7.306;2023-08-06T07:01:29;8.18;;;7.38;;
11187;SDS011;5650;52.700;7.306;2023-08-06T07:04:00;8.00;;;7.18;;
11187;SDS011;5650;52.700;7.306;2023-08-06T07:06:29;8.57;;;7.70;;
11187;SDS011;5650;52.700;7.306;2023-08-06T07:09:00;9.60;;;6.82;;
11187;SDS011;5650;52.700;7.306;2023-08-06T07:11:46;7.70;;;6.50;;
11187;SDS011;5650;52.700;7.306;2023-08-06T07:14:18;9.05;;;8.20;;
11187;SDS011;5650;52.700;7.306;2023-08-06T07:16:46;10.25;;;6.63;;
11187;SDS011;5650;52.700;7.306;2023-08-06T07:19:13;5.32;;;4.80;;
11187;SDS011;5650;52.700;7.306;2023-08-06T07:21:40;7.47;;;5.18;;
11187;SDS011;5650;52.700;7.306;2023-08-06T07:24:07;5.38;;;4.97;;
11187;SDS011;5650;52.700;7.306;2023-08-06T07:26:34;6.38;;;5.15;;
11187;SDS011;5650;52.700;7.306;2023-08-06T07:29:10;8.02;;;4.70;;
11187;SDS011;5650;52.700;7.306;2023-08-06T07:31:39;7.63;;;5.30;;
11187;SDS011;5650;52.700;7.306;2023-08-06T07:34:07;10.25;;;4.53;;
11187;SDS011;5650;52.700;7.306;2023-08-06T07:36:34;6.43;;;4.88;;
11187;SDS011;5650;52.700;7.306;2023-08-06T07:39:16;9.02;;;4.68;;
11187;SDS011;5650;52.700;7.306;2023-08-06T07:41:43;5.65;;;4.55;;
11187;SDS011;5650;52.700;7.306;2023-08-06T07:44:11;6.10;;;4.60;;
11187;SDS011;5650;52.700;7.306;2023-08-06T07:46:52;5.15;;;4.65;;
11187;SDS011;5650;52.700;7.306;2023-08-06T07:49:26;6.43;;;5.00;;
11187;SDS011;5650;52.700;7.306;2023-08-06T07:51:53;6.20;;;5.43;;
11187;SDS011;5650;52.700;7.306;2023-08-06T07:54:23;9.50;;;5.57;;
11187;SDS011;5650;52.700;7.306;2023-08-06T07:56:51;8.07;;;6.00;;
11187;SDS011;5650;52.700;7.306;2023-08-06T07:59:20;8.32;;;6.43;;
11187;SDS011;5650;52.700;7.306;2023-08-06T08:01:48;7.10;;;6.00;;
11187;SDS011;5650;52.700;7.306;2023-08-06T08:04:18;7.13;;;6.07;;
11187;SDS011;5650;52.700;7.306;2023-08-06T08:06:46;6.75;;;6.13;;
11187;SDS011;5650;52.700;7.306;2023-08-06T08:09:13;7.47;;;6.78;;
11187;SDS011;5650;52.700;7.306;2023-08-06T08:11:41;8.52;;;6.95;;
11187;SDS011;5650;52.700;7.306;2023-08-06T08:14:08;6.93;;;6.32;;
11187;SDS011;5650;52.700;7.306;2023-08-06T08:16:35;7.95;;;6.22;;
11187;SDS011;5650;52.700;7.306;2023-08-06T08:19:05;6.55;;;5.90;;
11187;SDS011;5650;52.700;7.306;2023-08-06T08:21:40;8.20;;;6.05;;
11187;SDS011;5650;52.700;7.306;2023-08-06T08:24:10;6.05;;;5.45;;
11187;SDS011;5650;52.700;7.306;2023-08-06T08:26:47;6.55;;;5.95;;
11187;SDS011;5650;52.700;7.306;2023-08-06T08:29:15;5.90;;;5.28;;
11187;SDS011;5650;52.700;7.306;2023-08-06T08:31:42;5.55;;;5.05;;
11187;SDS011;5650;52.700;7.306;2023-08-06T08:34:09;8.55;;;5.75;;
11187;SDS011;5650;52.700;7.306;2023-08-06T08:36:36;6.35;;;5.00;;
11187;SDS011;5650;52.700;7.306;2023-08-06T08:39:05;6.80;;;4.97;;
11187;SDS011;5650;52.700;7.306;2023-08-06T08:41:32;6.10;;;5.40;;
11187;SDS011;5650;52.700;7.306;2023-08-06T08:44:01;8.63;;;4.90;;
11187;SDS011;5650;52.700;7.306;2023-08-06T08:46:30;5.68;;;4.63;;
11187;SDS011;5650;52.700;7.306;2023-08-06T08:48:59;7.18;;;5.07;;
11187;SDS011;5650;52.700;7.306;2023-08-06T08:51:34;5.60;;;5.03;;
11187;SDS011;5650;52.700;7.306;2023-08-06T08:54:07;6.13;;;4.05;;
11187;SDS011;5650;52.700;7.306;2023-08-06T08:56:35;4.97;;;4.30;;
11187;SDS011;5650;52.700;7.306;2023-08-06T08:59:05;9.65;;;4.30;;
11187;SDS011;5650;52.700;7.306;2023-08-06T09:01:32;5.90;;;4.55;;
11187;SDS011;5650;52.700;7.306;2023-08-06T09:04:09;7.13;;;4.97;;
11187;SDS011;5650;52.700;7.306;2023-08-06T09:06:38;7.75;;;4.55;;
11187;SDS011;5650;52.700;7.306;2023-08-06T09:09:11;4.78;;;4.22;;
11187;SDS011;5650;52.700;7.306;2023-08-06T09:11:42;6.07;;;4.15;;
11187;SDS011;5650;52.700;7.306;2023-08-06T09:14:16;4.82;;;3.58;;
11187;SDS011;5650;52.700;7.306;2023-08-06T09:16:47;5.00;;;3.67;;
11187;SDS011;5650;52.700;7.306;2023-08-06T09:19:20;4.72;;;3.40;;
11187;SDS011;5650;52.700;7.306;2023-08-06T09:21:47;5.60;;;3.83;;
11187;SDS011;5650;52.700;7.306;2023-08-06T09:24:19;7.20;;;4.05;;
11187;SDS011;5650;52.700;7.306;2023-08-06T09:26:47;3.60;;;3.30;;
11187;SDS011;5650;52.700;7.306;2023-08-06T09:29:17;6.97;;;3.58;;
11187;SDS011;5650;52.700;7.306;2023-08-06T09:31:45;4.85;;;4.10;;
11187;SDS011;5650;52.700;7.306;2023-08-06T09:34:22;4.20;;;3.80;;
11187;SDS011;5650;52.700;7.306;2023-08-06T09:36:52;3.75;;;3.30;;
11187;SDS011;5650;52.700;7.306;2023-08-06T09:39:29;7.05;;;3.65;;
11187;SDS011;5650;52.700;7.306;2023-08-06T09:41:57;4.32;;;3.17;;
11187;SDS011;5650;52.700;7.306;2023-08-06T09:44:26;5.88;;;3.00;;
11187;SDS011;5650;52.700;7.306;2023-08-06T09:46:58;5.03;;;3.40;;
11187;SDS011;5650;52.700;7.306;2023-08-06T09:49:32;4.15;;;3.03;;
11187;SDS011;5650;52.700;7.306;2023-08-06T09:52:09;5.13;;;3.72;;
11187;SDS011;5650;52.700;7.306;2023-08-06T09:54:47;6.07;;;3.72;;
11187;SDS011;5650;52.700;7.306;2023-08-06T09:57:19;4.45;;;3.40;;
11187;SDS011;5650;52.700;7.306;2023-08-06T09:59:50;10.70;;;3.28;;
11187;SDS011;5650;52.700;7.306;2023-08-06T10:02:18;3.35;;;3.05;;
11187;SDS011;5650;52.700;7.306;2023-08-06T10:04:53;6.63;;;3.08;;
11187;SDS011;5650;52.700;7.306;2023-08-06T10:07:23;4.15;;;3.15;;
11187;SDS011;5650;52.700;7.306;2023-08-06T10:09:54;4.57;;;3.40;;
11187;SDS011;5650;52.700;7.306;2023-08-06T10:12:24;5.18;;;2.95;;
11187;SDS011;5650;52.700;7.306;2023-08-06T10:14:57;3.53;;;2.95;;
11187;SDS011;5650;52.700;7.306;2023-08-06T10:17:33;5.03;;;3.33;;
11187;SDS011;5650;52.700;7.306;2023-08-06T10:20:02;3.83;;;3.25;;
11187;SDS011;5650;52.700;7.306;2023-08-06T10:22:32;7.43;;;3.85;;
11187;SDS011;5650;52.700;7.306;2023-08-06T10:25:05;4.85;;;3.25;;
11187;SDS011;5650;52.700;7.306;2023-08-06T10:27:33;4.88;;;3.10;;
11187;SDS011;5650;52.700;7.306;2023-08-06T10:30:23;4.18;;;3.20;;
11187;SDS011;5650;52.700;7.306;2023-08-06T10:32:52;4.95;;;3.25;;
11187;SDS011;5650;52.700;7.306;2023-08-06T10:35:29;3.97;;;3.03;;
11187;SDS011;5650;52.700;7.306;2023-08-06T10:37:58;3.80;;;2.90;;
11187;SDS011;5650;52.700;7.306;2023-08-06T10:40:31;4.47;;;3.05;;
11187;SDS011;5650;52.700;7.306;2023-08-06T10:42:58;6.28;;;3.30;;
11187;SDS011;5650;52.700;7.306;2023-08-06T10:45:30;6.43;;;3.40;;
11187;SDS011;5650;52.700;7.306;2023-08-06T10:48:06;5.90;;;3.15;;
11187;SDS011;5650;52.700;7.306;2023-08-06T10:50:33;4.45;;;3.08;;
11187;SDS011;5650;52.700;7.306;2023-08-06T10:53:04;3.30;;;2.97;;
11187;SDS011;5650;52.700;7.306;2023-08-06T10:55:38;4.32;;;2.88;;
11187;SDS011;5650;52.700;7.306;2023-08-06T10:58:05;4.80;;;2.80;;
11187;SDS011;5650;52.700;7.306;2023-08-06T11:00:35;8.48;;;2.92;;
11187;SDS011;5650;52.700;7.306;2023-08-06T11:03:03;6.78;;;3.40;;
11187;SDS011;5650;52.700;7.306;2023-08-06T11:05:33;3.58;;;3.00;;
11187;SDS011;5650;52.700;7.306;2023-08-06T11:08:00;4.63;;;3.00;;
11187;SDS011;5650;52.700;7.306;2023-08-06T11:10:28;3.83;;;3.05;;
11187;SDS011;5650;52.700;7.306;2023-08-06T11:13:03;4.05;;;3.17;;
11187;SDS011;5650;52.700;7.306;2023-08-06T11:15:32;4.43;;;3.13;;
11187;SDS011;5650;52.700;7.306;2023-08-06T11:18:00;5.68;;;3.13;;
11187;SDS011;5650;52.700;7.306;2023-08-06T11:20:31;4.95;;;2.70;;
11187;SDS011;5650;52.700;7.306;2023-08-06T11:22:59;4.93;;;2.80;;
11187;SDS011;5650;52.700;7.306;2023-08-06T11:25:29;5.72;;;3.00;;
11187;SDS011;5650;52.700;7.306;2023-08-06T11:28:02;3.95;;;3.22;;
11187;SDS011;5650;52.700;7.306;2023-08-06T11:30:29;7.05;;;3.22;;
11187;SDS011;5650;52.700;7.306;2023-08-06T11:33:00;3.65;;;2.67;;
11187;SDS011;5650;52.700;7.306;2023-08-06T11:35:27;4.90;;;2.83;;
11187;SDS011;5650;52.700;7.306;2023-08-06T11:38:00;4.53;;;2.40;;
11187;SDS011;5650;52.700;7.306;2023-08-06T11:40:27;4.00;;;2.65;;
11187;SDS011;5650;52.700;7.306;2023-08-06T11:42:55;4.00;;;2.53;;
11187;SDS011;5650;52.700;7.306;2023-08-06T11:45:27;5.53;;;3.60;;
11187;SDS011;5650;52.700;7.306;2023-08-06T11:47:57;4.53;;;3.75;;
11187;SDS011;5650;52.700;7.306;2023-08-06T11:50:25;3.85;;;2.95;;
11187;SDS011;5650;52.700;7.306;2023-08-06T11:52:54;5.38;;;2.85;;
11187;SDS011;5650;52.700;7.306;2023-08-06T11:55:23;2.22;;;1.90;;
11187;SDS011;5650;52.700;7.306;2023-08-06T11:57:54;2.33;;;2.13;;
11187;SDS011;5650;52.700;7.306;2023-08-06T12:00:29;3.90;;;2.45;;
11187;SDS011;5650;52.700;7.306;2023-08-06T12:02:59;3.95;;;2.45;;
11187;SDS011;5650;52.700;7.306;2023-08-06T12:05:29;3.30;;;2.20;;
11187;SDS011;5650;52.700;7.306;2023-08-06T12:08:02;3.05;;;2.50;;
11187;SDS011;5650;52.700;7.306;2023-08-06T12:10:30;3.53;;;2.10;;
11187;SDS011;5650;52.700;7.306;2023-08-06T12:13:00;3.45;;;3.08;;
11187;SDS011;5650;52.700;7.306;2023-08-06T12:15:32;4.30;;;2.08;;
11187;SDS011;5650;52.700;7.306;2023-08-06T12:17:59;4.00;;;2.40;;
11187;SDS011;5650;52.700;7.306;2023-08-06T12:20:27;3.60;;;2.08;;
11187;SDS011;5650;52.700;7.306;2023-08-06T12:22:57;2.65;;;2.30;;
11187;SDS011;5650;52.700;7.306;2023-08-06T12:25:27;2.15;;;1.90;;
11187;SDS011;5650;52.700;7.306;2023-08-06T12:27:53;3.40;;;2.20;;
11187;SDS011;5650;52.700;7.306;2023-08-06T12:30:24;4.35;;;2.35;;
11187;SDS011;5650;52.700;7.306;2023-08-06T12:32:52;2.47;;;1.90;;
11187;SDS011;5650;52.700;7.306;2023-08-06T12:35:20;2.25;;;2.03;;
11187;SDS011;5650;52.700;7.306;2023-08-06T12:37:50;3.42;;;1.90;;
11187;SDS011;5650;52.700;7.306;2023-08-06T12:40:22;2.72;;;1.88;;
11187;SDS011;5650;52.700;7.306;2023-08-06T12:42:50;1.95;;;1.67;;
11187;SDS011;5650;52.700;7.306;2023-08-06T12:45:23;4.07;;;1.80;;
11187;SDS011;5650;52.700;7.306;2023-08-06T12:47:55;3.95;;;1.73;;
11187;SDS011;5650;52.700;7.306;2023-08-06T12:50:25;1.52;;;1.42;;
11187;SDS011;5650;52.700;7.306;2023-08-06T12:52:58;2.22;;;1.70;;
11187;SDS011;5650;52.700;7.306;2023-08-06T12:55:31;3.20;;;1.80;;
11187;SDS011;5650;52.700;7.306;2023-08-06T12:58:01;2.63;;;1.92;;
11187;SDS011;5650;52.700;7.306;2023-08-06T13:00:28;4.28;;;1.80;;
11187;SDS011;5650;52.700;7.306;2023-08-06T13:02:57;2.40;;;1.90;;
11187;SDS011;5650;52.700;7.306;2023-08-06T13:05:27;4.82;;;1.70;;
11187;SDS011;5650;52.700;7.306;2023-08-06T13:07:57;1.73;;;1.63;;
11187;SDS011;5650;52.700;7.306;2023-08-06T13:10:24;3.05;;;1.90;;
11187;SDS011;5650;52.700;7.306;2023-08-06T13:12:56;3.55;;;1.75;;
11187;SDS011;5650;52.700;7.306;2023-08-06T13:15:26;2.30;;;1.70;;
11187;SDS011;5650;52.700;7.306;2023-08-06T13:18:00;2.03;;;1.60;;
11187;SDS011;5650;52.700;7.306;2023-08-06T13:20:29;2.00;;;1.80;;
11187;SDS011;5650;52.700;7.306;2023-08-06T13:22:57;1.95;;;1.80;;
11187;SDS011;5650;52.700;7.306;2023-08-06T13:25:26;2.15;;;1.58;;
11187;SDS011;5650;52.700;7.306;2023-08-06T13:27:53;3.58;;;1.88;;
11187;SDS011;5650;52.700;7.306;2023-08-06T13:30:21;1.85;;;1.40;;
11187;SDS011;5650;52.700;7.306;2023-08-06T13:32:48;2.15;;;1.60;;
11187;SDS011;5650;52.700;7.306;2023-08-06T13:35:17;2.28;;;1.55;;
11187;SDS011;5650;52.700;7.306;2023-08-06T13:37:44;1.95;;;1.75;;
11187;SDS011;5650;52.700;7.306;2023-08-06T13:40:13;2.22;;;1.77;;
11187;SDS011;5650;52.700;7.306;2023-08-06T13:42:40;2.45;;;2.05;;
11187;SDS011;5650;52.700;7.306;2023-08-06T13:45:08;2.80;;;1.73;;
11187;SDS011;5650;52.700;7.306;2023-08-06T13:47:35;1.92;;;1.70;;
11187;SDS011;5650;52.700;7.306;2023-08-06T13:50:03;3.20;;;1.67;;
11187;SDS011;5650;52.700;7.306;2023-08-06T13:52:32;1.70;;;1.35;;
11187;SDS011;5650;52.700;7.306;2023-08-06T13:55:00;4.13;;;1.73;;
11187;SDS011;5650;52.700;7.306;2023-08-06T13:57:29;2.17;;;1.27;;
11187;SDS011;5650;52.700;7.306;2023-08-06T13:59:56;1.50;;;1.40;;
11187;SDS011;5650;52.700;7.306;2023-08-06T14:02:23;2.15;;;1.45;;
11187;SDS011;5650;52.700;7.306;2023-08-06T14:04:51;1.65;;;1.42;;
11187;SDS011;5650;52.700;7.306;2023-08-06T14:07:19;3.50;;;1.70;;
11187;SDS011;5650;52.700;7.306;2023-08-06T14:09:48;1.55;;;1.40;;
11187;SDS011;5650;52.700;7.306;2023-08-06T14:12:15;4.65;;;1.70;;
11187;SDS011;5650;52.700;7.306;2023-08-06T14:14:42;8.82;;;2.65;;
11187;SDS011;5650;52.700;7.306;2023-08-06T14:17:09;2.20;;;2.00;;
11187;SDS011;5650;52.700;7.306;2023-08-06T14:19:38;4.65;;;2.55;;
11187;SDS011;5650;52.700;7.306;2023-08-06T14:22:06;5.30;;;2.22;;
11187;SDS011;5650;52.700;7.306;2023-08-06T14:24:33;3.75;;;2.42;;
11187;SDS011;5650;52.700;7.306;2023-08-06T14:27:02;4.90;;;2.80;;
11187;SDS011;5650;52.700;7.306;2023-08-06T14:29:31;3.13;;;2.75;;
11187;SDS011;5650;52.700;7.306;2023-08-06T14:31:58;5.00;;;2.90;;
11187;SDS011;5650;52.700;7.306;2023-08-06T14:34:28;4.28;;;2.67;;
11187;SDS011;5650;52.700;7.306;2023-08-06T14:37:01;7.30;;;2.67;;
11187;SDS011;5650;52.700;7.306;2023-08-06T14:39:29;2.65;;;2.08;;
11187;SDS011;5650;52.700;7.306;2023-08-06T14:41:56;3.13;;;2.50;;
11187;SDS011;5650;52.700;7.306;2023-08-06T14:44:25;3.00;;;2.30;;
11187;SDS011;5650;52.700;7.306;2023-08-06T14:46:55;7.03;;;2.78;;
11187;SDS011;5650;52.700;7.306;2023-08-06T14:49:22;2.80;;;2.17;;
11187;SDS011;5650;52.700;7.306;2023-08-06T14:51:49;4.03;;;2.58;;
11187;SDS011;5650;52.700;7.306;2023-08-06T14:54:33;4.25;;;2.05;;
11187;SDS011;5650;52.700;7.306;2023-08-06T14:57:00;3.70;;;2.08;;
11187;SDS011;5650;52.700;7.306;2023-08-06T14:59:29;2.25;;;1.90;;
11187;SDS011;5650;52.700;7.306;2023-08-06T15:01:59;3.78;;;1.80;;
11187;SDS011;5650;52.700;7.306;2023-08-06T15:04:26;3.22;;;1.92;;
11187;SDS011;5650;52.700;7.306;2023-08-06T15:07:01;2.75;;;1.90;;